createdAt,value
2019-05-25T00:00:08.089Z,13.03
2019-05-25T00:02:36.781Z,12.98
2019-05-25T00:05:05.943Z,13.03
2019-05-25T00:07:34.617Z,12.98
2019-05-25T00:10:03.554Z,12.87
2019-05-25T00:12:32.304Z,12.77
2019-05-25T00:15:01.378Z,12.84
2019-05-25T00:17:30.261Z,12.83
2019-05-25T00:19:59.193Z,12.92
2019-05-25T00:22:27.868Z,12.92
2019-05-25T00:24:56.553Z,12.88
2019-05-25T00:27:25.517Z,12.79
2019-05-25T00:29:55.669Z,12.67
2019-05-25T00:32:24.294Z,12.59
2019-05-25T00:34:52.974Z,12.53
2019-05-25T00:37:21.651Z,12.60
2019-05-25T00:39:50.623Z,12.53
2019-05-25T00:42:19.298Z,12.63
2019-05-25T00:44:47.989Z,12.55
2019-05-25T00:47:16.663Z,12.56
2019-05-25T00:49:45.362Z,12.41
2019-05-25T00:52:14.362Z,12.37
2019-05-25T00:54:43.406Z,12.40
2019-05-25T00:57:12.082Z,12.36
2019-05-25T00:59:41.052Z,12.30
2019-05-25T01:02:09.734Z,12.34
2019-05-25T01:04:38.485Z,12.32
2019-05-25T01:07:07.137Z,12.45
2019-05-25T01:09:35.812Z,12.31
2019-05-25T01:12:04.565Z,12.23
2019-05-25T01:14:33.250Z,12.32
2019-05-25T01:17:03.368Z,12.29
2019-05-25T01:19:32.076Z,12.10
2019-05-25T01:22:00.776Z,12.19
2019-05-25T01:24:43.930Z,12.07
2019-05-25T01:27:01.407Z,12.04
2019-05-25T01:29:30.093Z,11.88
2019-05-25T01:31:59.144Z,11.85
2019-05-25T01:34:27.837Z,11.71
2019-05-25T01:36:56.785Z,11.82
2019-05-25T01:39:25.795Z,11.76
2019-05-25T01:41:54.468Z,11.86
2019-05-25T01:44:23.144Z,11.81
2019-05-25T01:46:51.830Z,11.79
2019-05-25T01:49:20.535Z,11.73
2019-05-25T01:51:49.220Z,11.64
2019-05-25T01:54:18.420Z,11.61
2019-05-25T01:56:47.088Z,11.60
2019-05-25T01:59:15.793Z,11.58
2019-05-25T02:01:45.089Z,11.59
2019-05-25T02:04:13.799Z,11.65
2019-05-25T02:06:42.482Z,11.51
2019-05-25T02:09:11.181Z,11.53
2019-05-25T02:11:40.940Z,11.32
2019-05-25T02:14:09.629Z,11.49
2019-05-25T02:16:38.630Z,11.40
2019-05-25T02:19:07.310Z,11.37
2019-05-25T02:21:36.305Z,11.46
2019-05-25T02:24:05.406Z,11.41
2019-05-25T02:26:34.225Z,11.24
2019-05-25T02:29:03.257Z,11.17
2019-05-25T02:31:31.936Z,11.18
2019-05-25T02:34:00.612Z,11.19
2019-05-25T02:36:29.300Z,11.28
2019-05-25T02:38:58.237Z,11.16
2019-05-25T02:41:26.989Z,11.23
2019-05-25T02:43:55.675Z,11.11
2019-05-25T02:46:24.374Z,11.03
2019-05-25T02:48:53.036Z,10.89
2019-05-25T02:51:21.714Z,10.82
2019-05-25T02:53:50.755Z,10.82
2019-05-25T02:56:19.692Z,10.84
2019-05-25T02:58:48.369Z,10.56
2019-05-25T03:01:17.062Z,10.48
2019-05-25T03:03:45.739Z,10.51
2019-05-25T03:06:15.236Z,10.31
2019-05-25T03:08:45.350Z,10.51
2019-05-25T03:11:14.124Z,10.61
2019-05-25T03:13:42.882Z,10.40
2019-05-25T03:16:11.561Z,10.55
2019-05-25T03:18:40.587Z,10.55
2019-05-25T03:21:09.295Z,10.44
2019-05-25T03:23:37.964Z,10.26
2019-05-25T03:26:06.689Z,10.41
2019-05-25T03:28:35.635Z,10.62
2019-05-25T03:31:04.724Z,10.61
2019-05-25T03:33:33.398Z,10.46
2019-05-25T03:36:02.064Z,10.62
2019-05-25T03:38:31.052Z,10.69
2019-05-25T03:41:00.039Z,10.68
2019-05-25T03:43:28.674Z,10.66
2019-05-25T03:45:57.375Z,10.50
2019-05-25T03:48:26.070Z,10.44
2019-05-25T03:50:54.753Z,10.60
2019-05-25T03:53:23.434Z,10.70
2019-05-25T03:56:04.704Z,10.73
2019-05-25T03:58:22.533Z,10.79
2019-05-25T04:00:51.233Z,10.93
2019-05-25T04:03:19.904Z,10.88
2019-05-25T04:05:48.875Z,10.68
2019-05-25T04:08:17.772Z,10.68
2019-05-25T04:10:46.531Z,10.64
2019-05-25T04:13:15.485Z,10.53
2019-05-25T04:15:44.809Z,10.46
2019-05-25T04:18:13.550Z,10.53
2019-05-25T04:20:42.848Z,10.48
2019-05-25T04:23:11.790Z,10.53
2019-05-25T04:25:40.772Z,10.66
2019-05-25T04:28:10.558Z,10.76
2019-05-25T04:30:39.215Z,10.66
2019-05-25T04:33:08.060Z,10.73
2019-05-25T04:35:37.111Z,10.83
2019-05-25T04:38:05.806Z,10.86
2019-05-25T04:40:35.094Z,11.02
2019-05-25T04:43:03.850Z,10.57
2019-05-25T04:45:32.525Z,10.63
2019-05-25T04:48:01.438Z,10.67
2019-05-25T04:50:30.964Z,10.57
2019-05-25T04:52:59.731Z,10.30
2019-05-25T04:55:29.052Z,10.54
2019-05-25T04:57:58.040Z,10.65
2019-05-25T05:00:27.041Z,10.80
2019-05-25T05:02:56.281Z,10.74
2019-05-25T05:05:25.024Z,10.93
2019-05-25T05:07:53.710Z,11.06
2019-05-25T05:10:22.449Z,10.92
2019-05-25T05:12:51.133Z,10.59
2019-05-25T05:15:19.876Z,10.76
2019-05-25T05:17:48.572Z,10.75
2019-05-25T05:20:17.321Z,10.58
2019-05-25T05:22:46.012Z,10.56
2019-05-25T05:25:14.768Z,10.65
2019-05-25T05:27:43.803Z,10.81
2019-05-25T05:30:12.919Z,10.94
2019-05-25T05:32:41.605Z,10.94
2019-05-25T05:35:11.092Z,11.03
2019-05-25T05:37:42.028Z,11.02
2019-05-25T05:40:11.149Z,11.19
2019-05-25T05:42:41.647Z,11.13
2019-05-25T05:45:10.762Z,11.10
2019-05-25T05:47:41.434Z,10.92
2019-05-25T05:50:10.512Z,11.05
2019-05-25T05:52:39.963Z,10.98
2019-05-25T05:55:12.047Z,10.86
2019-05-25T05:57:41.105Z,10.94
2019-05-25T06:00:10.931Z,11.08
2019-05-25T06:02:39.696Z,10.99
2019-05-25T06:05:08.513Z,10.86
2019-05-25T06:07:37.669Z,11.07
2019-05-25T06:10:08.383Z,10.79
2019-05-25T06:12:37.066Z,10.88
2019-05-25T06:15:06.527Z,10.99
2019-05-25T06:17:35.270Z,11.11
2019-05-25T06:20:04.676Z,11.00
2019-05-25T06:22:33.363Z,10.94
2019-05-25T06:25:02.046Z,10.89
2019-05-25T06:27:30.722Z,10.81
2019-05-25T06:29:59.406Z,10.90
2019-05-25T06:32:28.373Z,10.86
2019-05-25T06:34:57.043Z,10.87
2019-05-25T06:37:25.726Z,10.98
2019-05-25T06:39:54.408Z,11.10
2019-05-25T06:42:23.420Z,11.02
2019-05-25T06:44:52.090Z,10.92
2019-05-25T06:47:21.202Z,10.76
2019-05-25T06:49:49.866Z,10.80
2019-05-25T06:52:18.606Z,10.92
2019-05-25T06:54:50.606Z,10.95
2019-05-25T06:57:19.277Z,11.00
2019-05-25T06:59:48.619Z,10.95
2019-05-25T07:02:17.293Z,10.88
2019-05-25T07:04:46.297Z,11.07
2019-05-25T07:07:14.992Z,11.17
2019-05-25T07:09:43.671Z,11.18
2019-05-25T07:12:12.344Z,10.95
2019-05-25T07:14:41.027Z,10.92
2019-05-25T07:17:10.015Z,10.97
2019-05-25T07:19:38.704Z,10.78
2019-05-25T07:22:07.809Z,10.89
2019-05-25T07:24:36.494Z,11.04
2019-05-25T07:27:05.485Z,10.96
2019-05-25T07:29:34.178Z,11.08
2019-05-25T07:32:02.853Z,11.02
2019-05-25T07:34:31.620Z,11.10
2019-05-25T07:37:00.644Z,11.07
2019-05-25T07:39:29.344Z,11.31
2019-05-25T07:41:58.012Z,11.24
2019-05-25T07:44:26.702Z,11.17
2019-05-25T07:46:55.387Z,11.21
2019-05-25T07:49:24.077Z,11.20
2019-05-25T07:51:52.761Z,11.25
2019-05-25T07:54:21.525Z,11.32
2019-05-25T07:56:50.196Z,11.07
2019-05-25T07:59:18.868Z,11.30
2019-05-25T08:01:47.533Z,11.40
2019-05-25T08:04:16.691Z,11.59
2019-05-25T08:06:45.628Z,11.37
2019-05-25T08:09:14.309Z,11.55
2019-05-25T08:11:43.329Z,11.51
2019-05-25T08:14:12.005Z,11.29
2019-05-25T08:16:40.679Z,11.44
2019-05-25T08:19:09.419Z,11.18
2019-05-25T08:21:38.110Z,11.46
2019-05-25T08:24:06.930Z,11.59
2019-05-25T08:26:35.826Z,11.41
2019-05-25T08:29:04.655Z,11.62
2019-05-25T08:31:33.334Z,11.50
2019-05-25T08:34:02.309Z,11.60
2019-05-25T08:36:31.047Z,11.32
2019-05-25T08:39:00.111Z,11.39
2019-05-25T08:41:30.950Z,11.38
2019-05-25T08:44:00.107Z,11.48
2019-05-25T08:46:31.667Z,11.46
2019-05-25T08:49:00.711Z,11.48
2019-05-25T08:51:29.378Z,11.36
2019-05-25T08:53:58.391Z,11.58
2019-05-25T08:56:27.376Z,11.63
2019-05-25T08:58:56.940Z,11.66
2019-05-25T09:01:25.984Z,11.69
2019-05-25T09:03:54.671Z,11.83
2019-05-25T09:06:24.541Z,11.77
2019-05-25T09:08:53.516Z,11.58
2019-05-25T09:11:22.523Z,11.54
2019-05-25T09:13:51.219Z,11.57
2019-05-25T09:16:20.251Z,11.52
2019-05-25T09:18:48.927Z,11.50
2019-05-25T09:21:18.478Z,11.61
2019-05-25T09:23:48.811Z,11.53
2019-05-25T09:26:17.656Z,11.62
2019-05-25T09:28:46.648Z,11.58
2019-05-25T09:31:15.400Z,11.75
2019-05-25T09:33:44.065Z,11.75
2019-05-25T09:36:12.744Z,11.70
2019-05-25T09:38:43.425Z,11.77
2019-05-25T09:41:11.843Z,12.00
2019-05-25T09:43:40.509Z,11.94
2019-05-25T09:46:09.219Z,11.99
2019-05-25T09:48:38.446Z,12.12
2019-05-25T09:51:15.408Z,12.19
2019-05-25T09:53:38.189Z,12.28
2019-05-25T09:56:06.873Z,12.22
2019-05-25T09:58:35.792Z,12.53
2019-05-25T10:01:04.874Z,12.58
2019-05-25T10:03:33.572Z,12.80
2019-05-25T10:06:11.006Z,13.07
2019-05-25T10:08:33.007Z,12.95
2019-05-25T10:11:01.697Z,12.85
2019-05-25T10:13:30.627Z,12.95
2019-05-25T10:15:59.556Z,13.23
2019-05-25T10:18:28.236Z,12.98
2019-05-25T10:20:56.912Z,13.06
2019-05-25T10:23:25.601Z,13.18
2019-05-25T10:25:54.300Z,13.10
2019-05-25T10:28:23.280Z,13.11
2019-05-25T10:30:51.971Z,13.30
2019-05-25T10:33:21.844Z,12.49
2019-05-25T10:35:50.668Z,12.84
2019-05-25T10:38:19.309Z,13.05
2019-05-25T10:40:47.991Z,13.38
2019-05-25T10:43:16.943Z,13.23
2019-05-25T10:45:45.941Z,13.28
2019-05-25T10:48:14.936Z,13.28
2019-05-25T10:50:43.618Z,13.33
2019-05-25T10:53:12.846Z,13.43
2019-05-25T10:55:41.547Z,13.32
2019-05-25T10:58:10.488Z,13.23
2019-05-25T11:00:39.588Z,13.35
2019-05-25T11:03:08.340Z,13.39
2019-05-25T11:05:37.118Z,13.24
2019-05-25T11:08:05.800Z,13.21
2019-05-25T11:10:34.743Z,13.29
2019-05-25T11:13:03.811Z,13.52
2019-05-25T11:15:32.824Z,13.61
2019-05-25T11:18:01.499Z,13.70
2019-05-25T11:20:30.182Z,13.48
2019-05-25T11:22:58.857Z,13.52
2019-05-25T11:25:27.556Z,13.75
2019-05-25T11:27:56.557Z,13.95
2019-05-25T11:30:25.653Z,14.04
2019-05-25T11:32:54.347Z,14.25
2019-05-25T11:35:23.215Z,14.31
2019-05-25T11:37:51.892Z,14.31
2019-05-25T11:40:21.238Z,14.06
2019-05-25T11:42:49.916Z,14.13
2019-05-25T11:45:19.134Z,14.36
2019-05-25T11:47:47.915Z,14.86
2019-05-25T11:50:17.184Z,14.89
2019-05-25T11:52:45.985Z,14.89
2019-05-25T11:55:16.408Z,15.09
2019-05-25T11:57:45.089Z,15.05
2019-05-25T12:00:24.285Z,14.93
2019-05-25T12:02:45.811Z,14.79
2019-05-25T12:05:14.934Z,14.64
2019-05-25T12:07:45.123Z,14.72
2019-05-25T12:10:14.372Z,14.87
2019-05-25T12:12:43.450Z,14.34
2019-05-25T12:15:13.871Z,14.89
2019-05-25T12:17:42.644Z,14.79
2019-05-25T12:20:13.208Z,15.09
2019-05-25T12:22:41.898Z,14.73
2019-05-25T12:25:10.842Z,14.92
2019-05-25T12:27:39.561Z,14.89
2019-05-25T12:30:10.085Z,14.66
2019-05-25T12:32:38.777Z,14.39
2019-05-25T12:35:08.223Z,14.34
2019-05-25T12:37:36.922Z,14.45
2019-05-25T12:40:07.225Z,14.84
2019-05-25T12:42:36.017Z,14.95
2019-05-25T12:45:05.254Z,14.98
2019-05-25T12:47:33.964Z,15.03
2019-05-25T12:50:05.396Z,15.23
2019-05-25T12:52:34.247Z,15.44
2019-05-25T12:55:03.066Z,15.61
2019-05-25T12:57:31.993Z,15.43
2019-05-25T13:00:14.294Z,15.43
2019-05-25T13:02:31.435Z,15.48
2019-05-25T13:05:00.118Z,15.59
2019-05-25T13:07:28.858Z,15.57
2019-05-25T13:09:57.543Z,15.33
2019-05-25T13:12:26.485Z,15.39
2019-05-25T13:14:55.389Z,15.51
2019-05-25T13:17:24.150Z,15.56
2019-05-25T13:19:52.824Z,15.44
2019-05-25T13:22:21.508Z,15.60
2019-05-25T13:24:50.212Z,15.47
2019-05-25T13:27:19.265Z,15.27
2019-05-25T13:29:48.181Z,15.32
2019-05-25T13:32:17.114Z,15.76
2019-05-25T13:34:45.839Z,15.70
2019-05-25T13:37:17.192Z,15.93
2019-05-25T13:39:44.953Z,15.44
2019-05-25T13:42:14.449Z,15.74
2019-05-25T13:44:43.140Z,16.05
2019-05-25T13:47:11.843Z,16.12
2019-05-25T13:49:40.736Z,16.47
2019-05-25T13:52:09.429Z,16.46
2019-05-25T13:54:38.106Z,16.65
2019-05-25T13:57:06.773Z,16.74
2019-05-25T13:59:35.984Z,16.61
2019-05-25T14:02:05.287Z,16.77
2019-05-25T14:04:34.489Z,16.27
2019-05-25T14:07:03.186Z,15.88
2019-05-25T14:09:32.104Z,16.11
2019-05-25T14:12:00.839Z,16.80
2019-05-25T14:14:29.518Z,16.94
2019-05-25T14:16:58.191Z,17.09
2019-05-25T14:19:26.921Z,17.03
2019-05-25T14:21:58.348Z,17.11
2019-05-25T14:24:27.091Z,16.99
2019-05-25T14:26:55.826Z,16.80
2019-05-25T14:29:26.697Z,16.78
2019-05-25T14:31:55.347Z,16.53
2019-05-25T14:34:24.026Z,16.89
2019-05-25T14:36:52.694Z,16.91
2019-05-25T14:39:21.374Z,16.79
2019-05-25T14:41:50.367Z,16.77
2019-05-25T14:44:19.303Z,16.53
2019-05-25T14:46:48.222Z,16.36
2019-05-25T14:49:16.905Z,16.09
2019-05-25T14:51:45.900Z,16.04
2019-05-25T14:54:14.575Z,15.93
2019-05-25T14:56:43.305Z,15.90
2019-05-25T14:59:11.997Z,16.06
2019-05-25T15:01:40.737Z,15.92
2019-05-25T15:04:09.747Z,15.95
2019-05-25T15:06:38.541Z,16.03
2019-05-25T15:09:07.752Z,16.26
2019-05-25T15:11:36.507Z,16.29
2019-05-25T15:14:05.518Z,16.34
2019-05-25T15:16:34.420Z,16.94
2019-05-25T15:19:03.106Z,17.11
2019-05-25T15:21:32.119Z,16.69
2019-05-25T15:24:01.074Z,16.57
2019-05-25T15:26:29.738Z,16.27
2019-05-25T15:28:58.417Z,16.38
2019-05-25T15:31:27.080Z,16.20
2019-05-25T15:33:56.021Z,16.13
2019-05-25T15:36:24.701Z,15.99
2019-05-25T15:38:53.378Z,16.08
2019-05-25T15:41:22.049Z,15.85
2019-05-25T15:43:50.728Z,15.73
2019-05-25T15:46:19.413Z,15.76
2019-05-25T15:48:48.335Z,15.70
2019-05-25T15:51:17.004Z,15.61
2019-05-25T15:53:46.042Z,15.66
2019-05-25T15:56:15.455Z,15.70
2019-05-25T15:58:44.153Z,15.65
2019-05-25T16:01:13.161Z,15.55
2019-05-25T16:03:42.209Z,15.43
2019-05-25T16:06:10.885Z,15.56
2019-05-25T16:08:39.792Z,15.55
2019-05-25T16:11:08.722Z,15.44
2019-05-25T16:13:37.388Z,15.58
2019-05-25T16:16:06.404Z,15.54
2019-05-25T16:18:35.066Z,15.46
2019-05-25T16:21:03.986Z,15.52
2019-05-25T16:23:32.757Z,15.66
2019-05-25T16:26:01.519Z,15.54
2019-05-25T16:28:30.208Z,15.59
2019-05-25T16:30:59.175Z,15.55
2019-05-25T16:33:27.842Z,15.56
2019-05-25T16:35:58.046Z,15.32
2019-05-25T16:38:27.104Z,15.35
2019-05-25T16:40:56.037Z,15.31
2019-05-25T16:43:24.716Z,15.28
2019-05-25T16:45:53.642Z,15.45
2019-05-25T16:48:22.548Z,15.36
2019-05-25T16:50:51.230Z,15.27
2019-05-25T16:53:20.207Z,15.20
2019-05-25T16:55:49.190Z,15.35
2019-05-25T16:58:17.884Z,15.47
2019-05-25T17:00:46.591Z,15.38
2019-05-25T17:03:27.676Z,15.52
2019-05-25T17:05:46.226Z,15.58
2019-05-25T17:08:14.896Z,15.55
2019-05-25T17:10:43.824Z,15.58
2019-05-25T17:13:12.778Z,15.62
2019-05-25T17:15:41.712Z,15.66
2019-05-25T17:18:10.375Z,15.39
2019-05-25T17:20:39.159Z,15.41
2019-05-25T17:23:07.899Z,15.44
2019-05-25T17:25:36.588Z,15.38
2019-05-25T17:28:05.273Z,15.52
2019-05-25T17:30:42.632Z,15.49
2019-05-25T17:33:11.799Z,15.33
2019-05-25T17:35:40.572Z,15.48
2019-05-25T17:38:10.690Z,15.54
2019-05-25T17:40:39.515Z,15.52
2019-05-25T17:43:08.491Z,15.39
2019-05-25T17:45:37.262Z,15.36
2019-05-25T17:48:06.069Z,15.52
2019-05-25T17:50:34.826Z,15.37
2019-05-25T17:53:04.869Z,15.43
2019-05-25T17:55:34.108Z,15.39
2019-05-25T17:58:02.798Z,15.26
2019-05-25T18:00:43.409Z,15.16
2019-05-25T18:03:12.387Z,15.11
2019-05-25T18:05:41.399Z,15.34
2019-05-25T18:08:10.197Z,15.19
2019-05-25T18:10:51.857Z,15.03
2019-05-25T18:13:09.724Z,14.97
2019-05-25T18:15:38.415Z,15.03
2019-05-25T18:18:07.405Z,14.89
2019-05-25T18:20:36.208Z,14.91
2019-05-25T18:23:05.507Z,15.09
2019-05-25T18:25:34.782Z,15.19
2019-05-25T18:28:03.619Z,15.09
2019-05-25T18:30:32.461Z,15.11
2019-05-25T18:33:01.146Z,14.93
2019-05-25T18:35:30.064Z,15.04
2019-05-25T18:37:58.724Z,14.83
2019-05-25T18:40:30.560Z,14.91
2019-05-25T18:42:58.405Z,14.70
2019-05-25T18:45:27.240Z,14.72
2019-05-25T18:47:56.792Z,14.78
2019-05-25T18:50:25.617Z,14.74
2019-05-25T18:52:54.300Z,14.63
2019-05-25T18:55:23.113Z,14.63
2019-05-25T18:57:51.792Z,14.50
2019-05-25T19:00:20.900Z,14.43
2019-05-25T19:02:49.656Z,14.43
2019-05-25T19:05:18.961Z,14.49
2019-05-25T19:07:47.729Z,14.38
2019-05-25T19:10:16.585Z,14.40
2019-05-25T19:12:45.337Z,14.47
2019-05-25T19:15:14.874Z,14.36
2019-05-25T19:17:43.556Z,14.26
2019-05-25T19:20:12.609Z,14.19
2019-05-25T19:22:41.259Z,14.20
2019-05-25T19:25:11.922Z,14.11
2019-05-25T19:27:40.665Z,14.12
2019-05-25T19:30:12.920Z,13.97
2019-05-25T19:32:41.602Z,13.90
2019-05-25T19:35:11.845Z,13.73
2019-05-25T19:37:42.477Z,13.58
2019-05-25T19:40:11.582Z,13.43
2019-05-25T19:42:40.227Z,13.39
2019-05-25T19:45:09.640Z,13.26
2019-05-25T19:47:38.423Z,13.10
2019-05-25T19:50:07.583Z,13.00
2019-05-25T19:52:36.371Z,12.91
2019-05-25T19:55:05.289Z,12.88
2019-05-25T19:57:33.984Z,12.90
2019-05-25T20:00:02.881Z,12.83
2019-05-25T20:02:31.888Z,12.85
2019-05-25T20:05:15.005Z,12.79
2019-05-25T20:07:31.188Z,12.58
2019-05-25T20:09:59.862Z,12.62
2019-05-25T20:12:28.582Z,12.60
2019-05-25T20:14:57.494Z,12.58
2019-05-25T20:17:26.419Z,12.52
2019-05-25T20:19:55.140Z,12.51
2019-05-25T20:22:23.766Z,12.44
2019-05-25T20:24:52.425Z,12.43
2019-05-25T20:27:24.351Z,12.43
2019-05-25T20:29:53.263Z,12.34
2019-05-25T20:32:22.193Z,12.23
2019-05-25T20:34:51.093Z,12.11
2019-05-25T20:37:19.761Z,12.15
2019-05-25T20:39:48.944Z,11.25
2019-05-25T20:42:17.627Z,12.13
2019-05-25T20:44:46.294Z,12.15
2019-05-25T20:47:14.980Z,12.05
2019-05-25T20:49:43.897Z,11.99
2019-05-25T20:52:12.570Z,11.92
2019-05-25T20:54:41.260Z,11.99
2019-05-25T20:57:09.928Z,12.01
2019-05-25T20:59:38.847Z,12.04
2019-05-25T21:02:07.713Z,12.09
2019-05-25T21:04:36.394Z,12.16
2019-05-25T21:07:05.287Z,12.19
2019-05-25T21:09:34.008Z,12.30
2019-05-25T21:12:02.753Z,12.19
2019-05-25T21:14:31.420Z,12.13
2019-05-25T21:17:00.592Z,12.09
2019-05-25T21:19:29.274Z,11.97
2019-05-25T21:21:58.182Z,11.78
2019-05-25T21:24:26.926Z,11.75
2019-05-25T21:26:56.087Z,11.67
2019-05-25T21:29:24.764Z,11.60
2019-05-25T21:31:53.436Z,11.56
2019-05-25T21:34:22.117Z,11.59
2019-05-25T21:36:50.804Z,11.55
2019-05-25T21:39:19.488Z,11.50
2019-05-25T21:41:48.446Z,11.45
2019-05-25T21:44:17.189Z,11.35
2019-05-25T21:46:45.877Z,11.34
2019-05-25T21:49:14.784Z,11.35
2019-05-25T21:51:43.722Z,11.31
2019-05-25T21:54:12.385Z,11.29
2019-05-25T21:56:41.168Z,11.28
2019-05-25T21:59:09.825Z,11.28
2019-05-25T22:01:38.652Z,11.22
2019-05-25T22:04:07.423Z,11.20
2019-05-25T22:06:36.567Z,11.14
2019-05-25T22:09:07.420Z,11.08
2019-05-25T22:11:36.121Z,11.07
2019-05-25T22:14:05.007Z,11.02
2019-05-25T22:16:33.696Z,10.94
2019-05-25T22:19:02.635Z,10.91
2019-05-25T22:21:31.822Z,10.94
2019-05-25T22:24:00.513Z,10.94
2019-05-25T22:26:29.426Z,10.90
2019-05-25T22:28:58.380Z,10.82
2019-05-25T22:31:27.039Z,10.82
2019-05-25T22:33:59.128Z,10.87
2019-05-25T22:36:39.776Z,10.84
2019-05-25T22:38:58.613Z,10.82
2019-05-25T22:41:27.283Z,10.83
2019-05-25T22:43:56.448Z,10.85
2019-05-25T22:46:25.383Z,10.89
2019-05-25T22:48:54.070Z,10.86
2019-05-25T22:51:22.981Z,10.86
2019-05-25T22:53:51.671Z,10.82
2019-05-25T22:56:20.333Z,10.83
2019-05-25T22:58:49.034Z,10.78
2019-05-25T23:01:17.702Z,10.72
2019-05-25T23:03:46.379Z,10.62
2019-05-25T23:06:15.295Z,10.63
2019-05-25T23:08:44.241Z,10.44
2019-05-25T23:11:16.019Z,10.59
2019-05-25T23:13:45.203Z,10.62
2019-05-25T23:16:13.893Z,10.64
2019-05-25T23:18:42.658Z,10.54
2019-05-25T23:21:11.574Z,10.59
2019-05-25T23:23:40.480Z,10.61
2019-05-25T23:26:09.188Z,10.65
2019-05-25T23:28:37.867Z,10.66
2019-05-25T23:31:06.563Z,10.69
2019-05-25T23:33:35.235Z,10.71
2019-05-25T23:36:04.282Z,10.71
2019-05-25T23:38:33.198Z,10.57
2019-05-25T23:41:03.911Z,10.53
2019-05-25T23:43:32.293Z,10.63
2019-05-25T23:46:01.320Z,10.76
2019-05-25T23:48:30.311Z,10.77
2019-05-25T23:50:59.007Z,10.75
2019-05-25T23:53:27.693Z,10.71
2019-05-25T23:55:56.612Z,10.62
2019-05-25T23:58:25.295Z,10.44
